Time;durP1;ratioP1;P1;durP2;ratioP2;P2;SDS_P1;SDS_P2;PMS_P1;PMS_P2;Temp;Humidity;BMP_temperature;BMP_pressure;BME280_temperature;BME280_humidity;BME280_pressure;Samples;Min_cycle;Max_cycle;Signal;HPM_P1;HPM_P2
2021/09/04 07:19:25;;;;;;;65.07;29.30;;;;;;;;;;2672506;30;20470;-80
2021/09/04 07:21:51;;;;;;;61.83;29.70;;;;;;;;;;2670593;30;20402;-80
2021/09/04 07:24:17;;;;;;;64.20;31.93;;;;;;;;;;2634880;38;20363;-81
2021/09/04 07:26:43;;;;;;;55.20;29.17;;;;;;;;;;2636056;30;20403;-80
2021/09/04 07:29:09;;;;;;;59.20;28.20;;;;;;;;;;2634508;38;20605;-80
2021/09/04 07:31:36;;;;;;;51.83;26.70;;;;;;;;;;2633392;30;20802;-80
2021/09/04 07:34:02;;;;;;;43.50;24.10;;;;;;;;;;2649226;35;20409;-80
2021/09/04 07:36:30;;;;;;;43.97;23.70;;;;;;;;;;2632853;38;20375;-82
2021/09/04 07:38:56;;;;;;;41.47;22.43;;;;;;;;;;2633298;38;20390;-81
2021/09/04 07:41:23;;;;;;;47.97;25.57;;;;;;;;;;2630817;30;20426;-80
2021/09/04 07:43:49;;;;;;;43.00;22.90;;;;;;;;;;2627323;38;20442;-81
2021/09/04 07:46:15;;;;;;;44.37;22.83;;;;;;;;;;2632330;30;21315;-81
2021/09/04 07:48:41;;;;;;;48.67;27.37;;;;;;;;;;2629166;38;21883;-81
2021/09/04 07:51:08;;;;;;;53.47;27.87;;;;;;;;;;2631629;30;20378;-81
2021/09/04 07:53:37;;;;;;;45.63;24.67;;;;;;;;;;2630411;38;20383;-82
2021/09/04 07:56:03;;;;;;;39.13;22.17;;;;;;;;;;2630396;38;20417;-83
2021/09/04 07:58:32;;;;;;;41.23;23.00;;;;;;;;;;2629121;38;20383;-81
2021/09/04 08:00:58;;;;;;;47.13;25.53;;;;;;;;;;2631650;30;20405;-83
2021/09/04 08:03:33;;;;;;;43.27;23.40;;;;;;;;;;2628350;38;20370;-82
2021/09/04 08:06:02;;;;;;;45.77;26.50;;;;;;;;;;2630100;30;20535;-80
2021/09/04 08:08:29;;;;;;;49.67;24.70;;;;;;;;;;2629666;38;20382;-81
2021/09/04 08:10:55;;;;;;;56.80;27.23;;;;;;;;;;2628597;30;21916;-82
2021/09/04 08:13:22;;;;;;;55.77;28.83;;;;;;;;;;2627400;30;20378;-80
2021/09/04 08:15:48;;;;;;;67.93;31.00;;;;;;;;;;2630635;38;21241;-82
2021/09/04 08:18:15;;;;;;;111.03;38.37;;;;;;;;;;2630018;30;20386;-83
2021/09/04 08:20:44;;;;;;;62.23;29.23;;;;;;;;;;2629005;34;20392;-82
2021/09/04 08:23:17;;;;;;;52.67;30.30;;;;;;;;;;2630212;38;20378;-82
2021/09/04 08:25:43;;;;;;;47.97;27.77;;;;;;;;;;2629355;38;20445;-81
2021/09/04 08:28:10;;;;;;;58.53;28.70;;;;;;;;;;2627261;30;20387;-81
2021/09/04 08:30:36;;;;;;;60.63;29.13;;;;;;;;;;2622366;38;20397;-79
2021/09/04 08:33:03;;;;;;;66.80;30.13;;;;;;;;;;2627720;30;20419;-80
2021/09/04 08:35:29;;;;;;;56.23;28.57;;;;;;;;;;2625185;38;20541;-80
2021/09/04 08:37:55;;;;;;;59.30;30.87;;;;;;;;;;2621778;38;20586;-80
2021/09/04 08:40:22;;;;;;;55.27;28.30;;;;;;;;;;2623439;38;20395;-80
2021/09/04 08:42:49;;;;;;;52.73;28.70;;;;;;;;;;2625052;30;20379;-82
2021/09/04 08:45:15;;;;;;;49.53;27.03;;;;;;;;;;2626249;30;21294;-81
2021/09/04 08:47:42;;;;;;;55.07;27.80;;;;;;;;;;2630417;30;20415;-81
2021/09/04 08:50:08;;;;;;;52.37;29.50;;;;;;;;;;2633071;38;20383;-80
2021/09/04 08:52:35;;;;;;;53.07;27.80;;;;;;;;;;2632255;38;20442;-80
2021/09/04 08:55:01;;;;;;;51.47;26.80;;;;;;;;;;2644304;35;20493;-81
2021/09/04 08:57:28;;;;;;;51.47;27.83;;;;;;;;;;2624514;38;21300;-81
2021/09/04 08:59:54;;;;;;;41.07;24.27;;;;;;;;;;2622349;38;20865;-81
2021/09/04 09:02:26;;;;;;;53.80;28.23;;;;;;;;;;2625095;30;20413;-80
2021/09/04 09:05:00;;;;;;;55.63;29.70;;;;;;;;;;2621385;38;20438;-81
2021/09/04 09:07:46;;;;;;;57.63;30.40;;;;;;;;;;2624762;38;20379;-82
2021/09/04 09:10:21;;;;;;;50.70;27.20;;;;;;;;;;2625881;38;20387;-81
2021/09/04 09:12:48;;;;;;;56.00;29.70;;;;;;;;;;2627694;38;20921;-81
2021/09/04 09:15:24;;;;;;;50.50;27.30;;;;;;;;;;2623660;38;20390;-81
2021/09/04 09:17:58;;;;;;;51.00;28.10;;;;;;;;;;2625369;38;20395;-81
2021/09/04 09:20:24;;;;;;;52.63;28.57;;;;;;;;;;2626609;38;20419;-80
2021/09/04 09:22:51;;;;;;;49.03;29.33;;;;;;;;;;2625047;30;20426;-81
2021/09/04 09:25:18;;;;;;;49.67;27.37;;;;;;;;;;2630801;30;20410;-81
2021/09/04 09:28:00;;;;;;;48.87;26.23;;;;;;;;;;2627663;30;20427;-80
2021/09/04 09:30:34;;;;;;;48.03;28.20;;;;;;;;;;2623679;30;20434;-81
2021/09/04 09:33:00;;;;;;;50.93;30.40;;;;;;;;;;2625422;38;20385;-80
2021/09/04 09:35:33;;;;;;;47.67;27.80;;;;;;;;;;2627095;38;20396;-83
2021/09/04 09:38:01;;;;;;;43.70;26.90;;;;;;;;;;2625763;38;20466;-83
2021/09/04 09:40:27;;;;;;;47.17;26.80;;;;;;;;;;2626792;38;20395;-82
2021/09/04 09:42:53;;;;;;;46.60;28.40;;;;;;;;;;2626766;38;20360;-82
2021/09/04 09:45:20;;;;;;;45.80;29.20;;;;;;;;;;2624406;38;20508;-81
2021/09/04 09:47:50;;;;;;;46.63;27.67;;;;;;;;;;2623822;38;20394;-81
2021/09/04 09:50:16;;;;;;;48.10;30.37;;;;;;;;;;2623352;38;20413;-81
2021/09/04 09:52:44;;;;;;;47.47;29.07;;;;;;;;;;2625061;38;20379;-80
2021/09/04 09:55:11;;;;;;;48.77;27.83;;;;;;;;;;2624304;38;20497;-80
2021/09/04 09:57:37;;;;;;;46.57;26.10;;;;;;;;;;2624722;38;20390;-81
2021/09/04 10:00:04;;;;;;;44.97;27.37;;;;;;;;;;2624998;30;21139;-80
2021/09/04 10:02:30;;;;;;;52.47;30.00;;;;;;;;;;2625406;38;20399;-80
2021/09/04 10:04:57;;;;;;;46.90;28.43;;;;;;;;;;2625622;30;20394;-81
2021/09/04 10:07:29;;;;;;;49.80;28.90;;;;;;;;;;2626373;38;20407;-81
2021/09/04 10:09:56;;;;;;;48.47;26.70;;;;;;;;;;2625246;30;20791;-81
2021/09/04 10:12:24;;;;;;;51.47;29.50;;;;;;;;;;2627317;38;20407;-81
2021/09/04 10:14:51;;;;;;;49.37;31.17;;;;;;;;;;2624734;30;20718;-81
2021/09/04 10:17:19;;;;;;;48.53;28.27;;;;;;;;;;2626403;38;20387;-81
2021/09/04 10:19:53;;;;;;;51.13;30.30;;;;;;;;;;2626840;38;20410;-82
2021/09/04 10:22:22;;;;;;;47.10;30.80;;;;;;;;;;2626127;38;20390;-82
2021/09/04 10:24:53;;;;;;;56.57;29.67;;;;;;;;;;2628116;30;20426;-81
2021/09/04 10:27:39;;;;;;;47.30;28.83;;;;;;;;;;2627674;30;20411;-82
2021/09/04 10:30:25;;;;;;;49.90;27.93;;;;;;;;;;2628081;30;20435;-82
2021/09/04 10:33:03;;;;;;;53.30;28.03;;;;;;;;;;2626263;38;20378;-80
2021/09/04 10:35:44;;;;;;;52.43;30.43;;;;;;;;;;2627068;38;20379;-82
2021/09/04 10:38:18;;;;;;;40.47;26.67;;;;;;;;;;2623757;30;20355;-80
2021/09/04 10:40:47;;;;;;;52.70;28.40;;;;;;;;;;2626817;38;20389;-80
2021/09/04 10:43:17;;;;;;;49.27;28.93;;;;;;;;;;2634320;30;20367;-80
2021/09/04 10:45:44;;;;;;;55.80;31.57;;;;;;;;;;2638634;30;20466;-80
2021/09/04 10:48:14;;;;;;;49.43;29.00;;;;;;;;;;2634338;38;20363;-80
2021/09/04 10:50:41;;;;;;;55.13;32.53;;;;;;;;;;2634531;30;20383;-80
2021/09/04 10:53:07;;;;;;;52.13;31.50;;;;;;;;;;2631073;38;20363;-80
2021/09/04 10:55:38;;;;;;;56.17;32.30;;;;;;;;;;2637088;30;20887;-80
2021/09/04 10:58:14;;;;;;;64.20;35.13;;;;;;;;;;2634141;38;21280;-79
2021/09/04 11:00:44;;;;;;;59.60;34.27;;;;;;;;;;2633576;30;20363;-80
2021/09/04 11:03:11;;;;;;;56.93;31.57;;;;;;;;;;2631129;30;20472;-79
2021/09/04 11:05:39;;;;;;;56.87;31.37;;;;;;;;;;2630205;30;20435;-79
2021/09/04 11:08:06;;;;;;;51.43;29.67;;;;;;;;;;2629272;38;20402;-78
2021/09/04 11:10:32;;;;;;;51.97;30.00;;;;;;;;;;2632059;30;20454;-79
2021/09/04 11:13:14;;;;;;;46.30;31.33;;;;;;;;;;2632595;30;20997;-79
2021/09/04 11:15:41;;;;;;;59.93;32.63;;;;;;;;;;2635210;30;20952;-79
2021/09/04 11:18:07;;;;;;;58.90;32.83;;;;;;;;;;2632857;30;20563;-78
2021/09/04 11:20:33;;;;;;;54.83;32.17;;;;;;;;;;2625805;30;20382;-78
2021/09/04 11:22:59;;;;;;;61.00;36.33;;;;;;;;;;2625655;30;20384;-79
2021/09/04 11:25:25;;;;;;;56.00;35.10;;;;;;;;;;2626121;30;20434;-80
2021/09/04 11:27:51;;;;;;;52.60;33.87;;;;;;;;;;2624357;30;20386;-79
2021/09/04 11:30:20;;;;;;;62.90;34.17;;;;;;;;;;2626358;38;20411;-80
2021/09/04 11:32:46;;;;;;;69.23;42.90;;;;;;;;;;2626308;38;20396;-80
2021/09/04 11:35:12;;;;;;;65.17;40.23;;;;;;;;;;2626116;30;20358;-80
2021/09/04 11:37:38;;;;;;;64.70;37.23;;;;;;;;;;2626281;30;20412;-79
2021/09/04 11:40:04;;;;;;;59.20;36.00;;;;;;;;;;2625253;38;20466;-79
2021/09/04 11:42:32;;;;;;;64.63;39.57;;;;;;;;;;2626106;30;20390;-79
2021/09/04 11:45:02;;;;;;;65.60;38.23;;;;;;;;;;2628433;30;20477;-79
2021/09/04 11:47:29;;;;;;;60.90;37.37;;;;;;;;;;2626469;38;20393;-79
2021/09/04 11:49:56;;;;;;;70.93;40.00;;;;;;;;;;2626558;30;20508;-80
2021/09/04 11:52:28;;;;;;;72.50;36.90;;;;;;;;;;2630559;30;20394;-80
2021/09/04 11:55:13;;;;;;;74.10;41.50;;;;;;;;;;2629336;38;20478;-79
2021/09/04 11:57:41;;;;;;;76.90;43.03;;;;;;;;;;2629422;38;20911;-78
2021/09/04 12:00:12;;;;;;;75.03;40.87;;;;;;;;;;2632067;38;20407;-79
2021/09/04 12:02:43;;;;;;;76.90;41.27;;;;;;;;;;2629504;38;20406;-79
2021/09/04 12:05:10;;;;;;;109.67;62.20;;;;;;;;;;2633901;30;20957;-78
2021/09/04 12:07:37;;;;;;;79.30;38.37;;;;;;;;;;2628412;38;20940;-79
2021/09/04 12:10:04;;;;;;;72.10;41.83;;;;;;;;;;2631411;30;20947;-79
2021/09/04 12:12:31;;;;;;;79.00;41.57;;;;;;;;;;2630717;38;20440;-78
2021/09/04 12:14:57;;;;;;;72.00;41.13;;;;;;;;;;2630762;30;20398;-79
2021/09/04 12:17:23;;;;;;;83.07;44.40;;;;;;;;;;2630587;38;20382;-80
2021/09/04 12:19:50;;;;;;;78.83;44.40;;;;;;;;;;2633682;30;20544;-79
2021/09/04 12:22:16;;;;;;;71.00;41.07;;;;;;;;;;2632525;38;20957;-79
2021/09/04 12:24:42;;;;;;;72.03;41.77;;;;;;;;;;2627572;38;20414;-78
2021/09/04 12:27:08;;;;;;;82.70;46.23;;;;;;;;;;2626307;38;20395;-78
2021/09/04 12:29:34;;;;;;;80.40;42.83;;;;;;;;;;2626992;38;20947;-79
2021/09/04 12:32:09;;;;;;;77.93;43.40;;;;;;;;;;2625520;30;20382;-79
2021/09/04 12:34:36;;;;;;;74.10;42.10;;;;;;;;;;2633341;30;20371;-79
2021/09/04 12:37:02;;;;;;;65.67;40.10;;;;;;;;;;2631464;38;20363;-79
2021/09/04 12:39:30;;;;;;;66.10;39.13;;;;;;;;;;2631292;30;20925;-79
2021/09/04 12:42:06;;;;;;;68.83;42.87;;;;;;;;;;2632256;30;20371;-79
2021/09/04 12:44:36;;;;;;;66.97;41.30;;;;;;;;;;2631035;30;20374;-79
2021/09/04 12:47:02;;;;;;;68.30;41.77;;;;;;;;;;2631246;38;20375;-78
2021/09/04 12:49:35;;;;;;;71.20;45.57;;;;;;;;;;2631207;38;20414;-79
2021/09/04 12:52:12;;;;;;;71.27;45.60;;;;;;;;;;2629138;38;20367;-79
2021/09/04 12:54:39;;;;;;;74.23;42.20;;;;;;;;;;2630559;30;20395;-79
2021/09/04 12:57:12;;;;;;;69.53;44.20;;;;;;;;;;2629790;38;20958;-79
2021/09/04 12:59:42;;;;;;;64.23;40.17;;;;;;;;;;2632388;30;20394;-79
2021/09/04 13:02:08;;;;;;;70.07;41.00;;;;;;;;;;2629864;30;20486;-79
2021/09/04 13:04:35;;;;;;;77.63;42.20;;;;;;;;;;2625602;38;20557;-78
2021/09/04 13:07:01;;;;;;;64.87;39.50;;;;;;;;;;2631139;30;20391;-78
2021/09/04 13:09:27;;;;;;;62.83;39.23;;;;;;;;;;2633116;30;20406;-78
2021/09/04 13:11:53;;;;;;;61.83;39.40;;;;;;;;;;2630543;38;20401;-78
2021/09/04 13:14:19;;;;;;;60.13;40.10;;;;;;;;;;2630434;30;20411;-78
2021/09/04 13:16:46;;;;;;;58.37;37.30;;;;;;;;;;2628809;38;20371;-78
2021/09/04 13:19:12;;;;;;;54.83;38.30;;;;;;;;;;2629020;38;21283;-78
2021/09/04 13:21:38;;;;;;;61.53;40.27;;;;;;;;;;2629906;30;20375;-78
2021/09/04 13:24:04;;;;;;;65.80;41.43;;;;;;;;;;2629613;30;20429;-78
2021/09/04 13:26:31;;;;;;;55.53;38.60;;;;;;;;;;2629459;30;21296;-78
2021/09/04 13:28:57;;;;;;;61.97;37.53;;;;;;;;;;2628779;38;20370;-78
2021/09/04 13:31:24;;;;;;;55.40;37.07;;;;;;;;;;2628851;30;20423;-78
2021/09/04 13:33:50;;;;;;;53.10;35.50;;;;;;;;;;2626984;30;20379;-78
2021/09/04 13:36:17;;;;;;;58.87;36.57;;;;;;;;;;2627875;38;20382;-78
2021/09/04 13:38:43;;;;;;;52.80;37.80;;;;;;;;;;2627643;30;21016;-79
2021/09/04 13:41:09;;;;;;;51.40;37.60;;;;;;;;;;2629386;30;20945;-79
2021/09/04 13:43:35;;;;;;;56.93;39.67;;;;;;;;;;2629766;30;20413;-78
2021/09/04 13:46:01;;;;;;;57.30;39.60;;;;;;;;;;2630979;38;20394;-78
2021/09/04 13:48:28;;;;;;;53.67;41.63;;;;;;;;;;2630990;30;20478;-78
2021/09/04 13:50:54;;;;;;;54.47;38.17;;;;;;;;;;2628521;38;20375;-79
2021/09/04 13:53:20;;;;;;;53.73;39.63;;;;;;;;;;2632554;30;20375;-79
2021/09/04 13:55:47;;;;;;;58.57;40.93;;;;;;;;;;2631421;30;20401;-79
2021/09/04 13:58:14;;;;;;;57.83;40.37;;;;;;;;;;2625815;38;20388;-79
2021/09/04 14:00:40;;;;;;;47.97;35.97;;;;;;;;;;2628137;38;20895;-79
2021/09/04 14:03:07;;;;;;;50.63;37.40;;;;;;;;;;2628468;30;20358;-78
2021/09/04 14:05:34;;;;;;;53.00;37.43;;;;;;;;;;2630465;38;20490;-79
2021/09/04 14:08:00;;;;;;;50.43;38.30;;;;;;;;;;2627436;38;21100;-79
2021/09/04 14:10:26;;;;;;;45.97;36.67;;;;;;;;;;2632125;38;20793;-79
2021/09/04 14:12:53;;;;;;;51.27;38.17;;;;;;;;;;2632153;30;21281;-79
2021/09/04 14:15:19;;;;;;;47.13;36.43;;;;;;;;;;2631537;30;20390;-79
2021/09/04 14:17:45;;;;;;;44.87;36.23;;;;;;;;;;2631147;30;20423;-79
2021/09/04 14:20:11;;;;;;;43.00;35.77;;;;;;;;;;2630021;30;20737;-78
2021/09/04 14:22:37;;;;;;;43.40;34.80;;;;;;;;;;2629487;30;20426;-79
2021/09/04 14:25:04;;;;;;;46.57;38.13;;;;;;;;;;2629022;38;20418;-78
2021/09/04 14:27:30;;;;;;;44.60;35.20;;;;;;;;;;2630997;30;20378;-78
2021/09/04 14:29:57;;;;;;;44.13;32.70;;;;;;;;;;2625047;30;20367;-79
2021/09/04 14:32:23;;;;;;;47.10;37.23;;;;;;;;;;2624825;30;20397;-78
2021/09/04 14:34:49;;;;;;;47.67;39.20;;;;;;;;;;2632459;30;20976;-78
2021/09/04 14:37:15;;;;;;;54.47;37.77;;;;;;;;;;2632131;30;20367;-78
2021/09/04 14:39:42;;;;;;;50.70;37.10;;;;;;;;;;2632379;30;20352;-80
2021/09/04 14:42:08;;;;;;;47.23;35.33;;;;;;;;;;2632594;30;20379;-80
2021/09/04 14:44:34;;;;;;;45.17;35.33;;;;;;;;;;2632353;30;20522;-81
2021/09/04 14:47:00;;;;;;;46.13;36.33;;;;;;;;;;2634559;30;20379;-81
2021/09/04 14:49:26;;;;;;;49.90;38.17;;;;;;;;;;2636727;38;20347;-80
2021/09/04 14:51:52;;;;;;;56.30;40.60;;;;;;;;;;2632450;38;20483;-79
2021/09/04 14:54:18;;;;;;;46.10;36.27;;;;;;;;;;2632781;30;20379;-80
2021/09/04 14:56:45;;;;;;;49.63;37.27;;;;;;;;;;2635926;30;20379;-79
2021/09/04 14:59:11;;;;;;;44.30;36.57;;;;;;;;;;2630790;30;20427;-79
2021/09/04 15:01:38;;;;;;;50.50;36.57;;;;;;;;;;2628281;38;20370;-80
2021/09/04 15:04:04;;;;;;;45.77;31.93;;;;;;;;;;2632018;30;20397;-81
2021/09/04 15:06:30;;;;;;;41.30;33.43;;;;;;;;;;2629843;30;20386;-81
2021/09/04 15:08:56;;;;;;;38.60;31.53;;;;;;;;;;2630784;38;21228;-82
2021/09/04 15:11:23;;;;;;;44.47;32.20;;;;;;;;;;2636295;30;20507;-81
2021/09/04 15:13:50;;;;;;;37.47;30.50;;;;;;;;;;2634336;38;20510;-80
2021/09/04 15:16:16;;;;;;;46.63;31.40;;;;;;;;;;2634562;30;20407;-80
2021/09/04 15:18:43;;;;;;;39.83;31.80;;;;;;;;;;2634340;30;20591;-80
2021/09/04 15:21:09;;;;;;;43.07;32.53;;;;;;;;;;2632704;38;20391;-80
2021/09/04 15:23:42;;;;;;;56.43;42.00;;;;;;;;;;2633065;38;20386;-81
2021/09/04 15:26:11;;;;;;;587.60;478.83;;;;;;;;;;2637113;38;20375;-81
2021/09/04 15:28:38;;;;;;;62.07;42.53;;;;;;;;;;2633925;38;20379;-79
2021/09/04 15:31:04;;;;;;;46.17;38.93;;;;;;;;;;2632919;30;20411;-79
2021/09/04 15:33:30;;;;;;;56.57;32.37;;;;;;;;;;2633374;30;20638;-81
2021/09/04 15:35:57;;;;;;;34.43;27.20;;;;;;;;;;2634431;30;20374;-80
2021/09/04 15:38:23;;;;;;;35.90;26.93;;;;;;;;;;2635695;30;20403;-78
2021/09/04 15:40:49;;;;;;;35.30;28.33;;;;;;;;;;2628976;30;20379;-79
2021/09/04 15:43:15;;;;;;;36.33;26.63;;;;;;;;;;2631492;30;20378;-78
2021/09/04 15:45:42;;;;;;;32.27;24.43;;;;;;;;;;2628455;38;20435;-78
2021/09/04 15:48:08;;;;;;;30.60;24.30;;;;;;;;;;2629798;38;20934;-78
2021/09/04 15:50:34;;;;;;;33.43;23.73;;;;;;;;;;2629458;38;20374;-78
2021/09/04 15:53:05;;;;;;;79.90;63.63;;;;;;;;;;2628890;30;20394;-78
2021/09/04 15:55:32;;;;;;;89.13;67.97;;;;;;;;;;2629882;30;20409;-78
2021/09/04 15:57:58;;;;;;;44.00;34.90;;;;;;;;;;2630102;30;20434;-78
2021/09/04 16:00:24;;;;;;;93.57;83.10;;;;;;;;;;2625986;30;20379;-78
2021/09/04 16:02:50;;;;;;;79.60;69.60;;;;;;;;;;2625148;38;20373;-78
2021/09/04 16:05:16;;;;;;;433.37;372.83;;;;;;;;;;2625618;30;20389;-79
2021/09/04 16:07:42;;;;;;;204.20;167.50;;;;;;;;;;2629724;30;20478;-79
2021/09/04 16:10:09;;;;;;;310.30;276.07;;;;;;;;;;2622698;30;20394;-78
2021/09/04 16:12:35;;;;;;;450.00;401.73;;;;;;;;;;2624749;30;20387;-78
2021/09/04 16:15:01;;;;;;;201.47;181.23;;;;;;;;;;2623419;38;20433;-78
2021/09/04 16:17:27;;;;;;;204.97;176.60;;;;;;;;;;2623188;30;21548;-78
2021/09/04 16:19:53;;;;;;;66.73;52.47;;;;;;;;;;2626514;30;20539;-78
2021/09/04 16:22:19;;;;;;;39.73;28.40;;;;;;;;;;2624358;30;20401;-79
2021/09/04 16:24:45;;;;;;;32.77;26.10;;;;;;;;;;2628399;30;20371;-79
2021/09/04 16:27:11;;;;;;;26.17;22.20;;;;;;;;;;2623831;30;20498;-79
2021/09/04 16:29:37;;;;;;;33.60;23.10;;;;;;;;;;2626396;30;20502;-78
2021/09/04 16:32:04;;;;;;;35.03;23.43;;;;;;;;;;2624717;30;20386;-78
2021/09/04 16:34:33;;;;;;;30.10;24.37;;;;;;;;;;2626799;30;20379;-79
2021/09/04 16:36:59;;;;;;;29.27;22.07;;;;;;;;;;2629145;30;21261;-79
2021/09/04 16:39:25;;;;;;;28.80;22.20;;;;;;;;;;2627038;38;20405;-79
2021/09/04 16:41:51;;;;;;;33.53;22.47;;;;;;;;;;2626692;30;21614;-79
2021/09/04 16:44:23;;;;;;;32.17;23.53;;;;;;;;;;2628188;30;20386;-79
2021/09/04 16:46:49;;;;;;;30.30;23.90;;;;;;;;;;2627552;30;20394;-79
2021/09/04 16:49:18;;;;;;;29.50;21.57;;;;;;;;;;2626796;30;20422;-79
2021/09/04 16:51:44;;;;;;;31.20;22.27;;;;;;;;;;2624867;38;20395;-79
2021/09/04 16:54:10;;;;;;;28.33;21.17;;;;;;;;;;2625462;38;20400;-79
2021/09/04 16:56:36;;;;;;;32.77;24.70;;;;;;;;;;2625006;38;20375;-79
2021/09/04 16:59:02;;;;;;;30.90;25.07;;;;;;;;;;2625808;38;20442;-79
2021/09/04 17:01:28;;;;;;;30.27;24.67;;;;;;;;;;2627077;30;20395;-79
2021/09/04 17:03:54;;;;;;;33.17;24.03;;;;;;;;;;2627108;30;20918;-79
2021/09/04 17:06:20;;;;;;;34.20;25.90;;;;;;;;;;2627589;30;20462;-79
2021/09/04 17:08:46;;;;;;;32.60;23.13;;;;;;;;;;2625885;38;20379;-79
2021/09/04 17:11:12;;;;;;;34.73;22.70;;;;;;;;;;2630052;30;20407;-79
2021/09/04 17:13:38;;;;;;;33.17;24.20;;;;;;;;;;2625231;30;21529;-78
2021/09/04 17:16:04;;;;;;;31.07;23.87;;;;;;;;;;2628634;38;20384;-79
2021/09/04 17:18:30;;;;;;;29.37;22.67;;;;;;;;;;2626900;30;20417;-78
2021/09/04 17:20:59;;;;;;;31.90;24.77;;;;;;;;;;2624980;30;20391;-78
2021/09/04 17:23:25;;;;;;;29.23;23.10;;;;;;;;;;2626628;30;20375;-78
2021/09/04 17:25:51;;;;;;;32.13;22.63;;;;;;;;;;2626662;38;20374;-79
2021/09/04 17:28:17;;;;;;;38.97;23.70;;;;;;;;;;2628234;30;21136;-79
2021/09/04 17:30:44;;;;;;;32.30;23.43;;;;;;;;;;2630164;38;20414;-79
2021/09/04 17:33:11;;;;;;;33.73;22.80;;;;;;;;;;2630424;38;20379;-79
2021/09/04 17:35:38;;;;;;;34.67;23.40;;;;;;;;;;2632346;30;20379;-79
2021/09/04 17:38:04;;;;;;;33.07;23.53;;;;;;;;;;2631045;30;20379;-79
2021/09/04 17:40:31;;;;;;;34.20;23.73;;;;;;;;;;2635208;30;20363;-79
2021/09/04 17:42:57;;;;;;;29.13;23.43;;;;;;;;;;2630626;30;20400;-79
2021/09/04 17:45:25;;;;;;;33.43;23.30;;;;;;;;;;2631586;30;20399;-79
2021/09/04 17:47:51;;;;;;;40.07;25.27;;;;;;;;;;2630077;30;20384;-79
2021/09/04 17:50:17;;;;;;;29.37;22.47;;;;;;;;;;2631904;30;20375;-79
2021/09/04 17:52:47;;;;;;;30.97;22.30;;;;;;;;;;2630802;30;20386;-79
2021/09/04 17:55:14;;;;;;;32.83;23.83;;;;;;;;;;2630632;38;20524;-79
2021/09/04 17:57:40;;;;;;;32.30;23.40;;;;;;;;;;2626853;30;20410;-79
2021/09/04 18:00:07;;;;;;;31.60;24.00;;;;;;;;;;2628913;38;20445;-79
2021/09/04 18:02:34;;;;;;;35.80;23.90;;;;;;;;;;2630974;30;20387;-79
2021/09/04 18:05:00;;;;;;;36.50;24.67;;;;;;;;;;2628267;30;20390;-79
2021/09/04 18:07:26;;;;;;;31.23;24.27;;;;;;;;;;2637070;38;20479;-82
2021/09/04 18:09:52;;;;;;;31.23;24.33;;;;;;;;;;2642557;30;20908;-83
2021/09/04 18:12:18;;;;;;;36.97;24.27;;;;;;;;;;2639460;38;20966;-83
2021/09/04 18:14:44;;;;;;;37.60;23.97;;;;;;;;;;2643259;30;20422;-81
2021/09/04 18:17:12;;;;;;;33.60;25.97;;;;;;;;;;2640205;30;20395;-81
2021/09/04 18:19:38;;;;;;;29.27;22.00;;;;;;;;;;2640171;38;20363;-81
2021/09/04 18:22:05;;;;;;;38.40;25.43;;;;;;;;;;2637607;38;20355;-81
2021/09/04 18:24:31;;;;;;;37.83;23.83;;;;;;;;;;2639467;38;20447;-82
2021/09/04 18:26:58;;;;;;;33.27;26.07;;;;;;;;;;2638487;30;21498;-81
2021/09/04 18:29:24;;;;;;;36.93;27.27;;;;;;;;;;2639853;30;20373;-81
2021/09/04 18:31:50;;;;;;;35.93;26.00;;;;;;;;;;2635453;30;20510;-81
2021/09/04 18:34:16;;;;;;;43.50;29.43;;;;;;;;;;2635217;38;20382;-81
2021/09/04 18:36:42;;;;;;;42.70;29.47;;;;;;;;;;2636585;38;20981;-81
2021/09/04 18:39:08;;;;;;;37.90;26.90;;;;;;;;;;2636249;38;20367;-81
2021/09/04 18:41:34;;;;;;;45.47;28.30;;;;;;;;;;2633695;38;20363;-80
2021/09/04 18:44:00;;;;;;;48.60;29.27;;;;;;;;;;2634514;38;20379;-81
2021/09/04 18:46:27;;;;;;;44.07;31.43;;;;;;;;;;2631578;38;20387;-82
2021/09/04 18:48:55;;;;;;;42.80;31.00;;;;;;;;;;2634061;30;20383;-81
2021/09/04 18:51:24;;;;;;;42.67;30.40;;;;;;;;;;2632618;38;20423;-81
2021/09/04 18:53:51;;;;;;;50.37;32.23;;;;;;;;;;2635969;38;20396;-81
2021/09/04 18:56:17;;;;;;;42.27;29.37;;;;;;;;;;2630411;30;20391;-82
2021/09/04 18:58:43;;;;;;;46.93;29.27;;;;;;;;;;2633805;30;20425;-81
2021/09/04 19:01:09;;;;;;;42.20;26.90;;;;;;;;;;2630603;38;20410;-81
2021/09/04 19:03:35;;;;;;;42.90;28.63;;;;;;;;;;2634238;38;20359;-81
2021/09/04 19:06:01;;;;;;;42.30;26.27;;;;;;;;;;2634707;30;20379;-81
2021/09/04 19:08:27;;;;;;;38.37;29.00;;;;;;;;;;2637232;30;20371;-82
2021/09/04 19:10:53;;;;;;;41.50;27.53;;;;;;;;;;2637551;30;20367;-82
2021/09/04 19:13:19;;;;;;;45.67;25.60;;;;;;;;;;2636029;38;20351;-81
2021/09/04 19:15:46;;;;;;;41.93;28.00;;;;;;;;;;2641622;38;20370;-81
2021/09/04 19:18:12;;;;;;;47.07;30.33;;;;;;;;;;2642839;30;21399;-82
2021/09/04 19:20:38;;;;;;;48.63;28.33;;;;;;;;;;2638016;30;21339;-81
2021/09/04 19:23:07;;;;;;;36.47;27.67;;;;;;;;;;2642267;30;20415;-81
2021/09/04 19:25:34;;;;;;;42.27;29.27;;;;;;;;;;2636203;30;20394;-82
2021/09/04 19:28:01;;;;;;;43.07;28.57;;;;;;;;;;2639529;30;20420;-81
2021/09/04 19:30:27;;;;;;;38.73;28.77;;;;;;;;;;2634523;30;20359;-81
2021/09/04 19:32:53;;;;;;;43.07;30.20;;;;;;;;;;2638159;30;20881;-81
2021/09/04 19:35:19;;;;;;;50.13;31.57;;;;;;;;;;2637871;30;21487;-82
2021/09/04 19:37:45;;;;;;;45.27;32.50;;;;;;;;;;2638533;30;20529;-81
2021/09/04 19:40:11;;;;;;;43.43;31.60;;;;;;;;;;2635369;38;20386;-80
2021/09/04 19:42:38;;;;;;;47.83;32.50;;;;;;;;;;2638985;38;20382;-82
2021/09/04 19:45:04;;;;;;;44.40;31.10;;;;;;;;;;2638585;38;20515;-82
2021/09/04 19:47:30;;;;;;;53.30;33.40;;;;;;;;;;2656574;35;20383;-82
2021/09/04 19:49:56;;;;;;;49.93;30.53;;;;;;;;;;2639627;38;21341;-82
2021/09/04 19:52:22;;;;;;;54.03;33.00;;;;;;;;;;2633895;38;20469;-81
2021/09/04 19:54:49;;;;;;;55.97;36.27;;;;;;;;;;2634767;38;21619;-83
2021/09/04 19:57:15;;;;;;;52.87;31.00;;;;;;;;;;2638877;30;21251;-83
2021/09/04 19:59:41;;;;;;;40.97;29.33;;;;;;;;;;2634675;30;20383;-83
2021/09/04 20:02:07;;;;;;;44.03;29.90;;;;;;;;;;2629397;30;20486;-81
2021/09/04 20:04:33;;;;;;;46.87;30.67;;;;;;;;;;2631212;30;21604;-82
2021/09/04 20:07:00;;;;;;;49.07;30.77;;;;;;;;;;2631301;38;20403;-82
2021/09/04 20:09:26;;;;;;;46.37;30.27;;;;;;;;;;2633729;38;20367;-82
2021/09/04 20:11:52;;;;;;;41.80;27.60;;;;;;;;;;2633025;38;20412;-82
2021/09/04 20:14:18;;;;;;;48.00;31.83;;;;;;;;;;2632488;38;21323;-80
2021/09/04 20:16:45;;;;;;;40.93;28.07;;;;;;;;;;2629779;30;20398;-81
2021/09/04 20:19:13;;;;;;;43.43;28.00;;;;;;;;;;2633922;30;20383;-82
2021/09/04 20:21:39;;;;;;;43.83;30.60;;;;;;;;;;2631846;38;20918;-82
2021/09/04 20:24:05;;;;;;;38.03;26.80;;;;;;;;;;2632305;38;20801;-82
2021/09/04 20:26:32;;;;;;;36.30;24.80;;;;;;;;;;2632504;38;20483;-81
2021/09/04 20:28:58;;;;;;;38.20;24.00;;;;;;;;;;2632999;38;21681;-82
2021/09/04 20:31:24;;;;;;;33.80;22.47;;;;;;;;;;2635585;30;20386;-83
2021/09/04 20:33:51;;;;;;;28.77;21.37;;;;;;;;;;2635071;30;21584;-82
2021/09/04 20:41:47;;;;;;;30.27;21.10;;;;;;;;;;2630734;38;20382;-81
2021/09/04 20:44:16;;;;;;;28.13;19.57;;;;;;;;;;2632934;30;21488;-82
2021/09/04 20:46:44;;;;;;;28.70;18.77;;;;;;;;;;2633275;38;20403;-82
2021/09/04 20:49:12;;;;;;;24.53;18.07;;;;;;;;;;2634219;30;20413;-81
2021/09/04 20:51:38;;;;;;;31.60;20.70;;;;;;;;;;2633702;38;21090;-81
2021/09/04 20:54:05;;;;;;;26.37;19.33;;;;;;;;;;2632430;38;20395;-82
2021/09/04 20:56:31;;;;;;;17.53;15.10;;;;;;;;;;2632544;38;20403;-82
2021/09/04 20:58:57;;;;;;;25.30;17.90;;;;;;;;;;2638007;30;20387;-81
2021/09/04 21:01:23;;;;;;;29.07;17.87;;;;;;;;;;2644304;38;20356;-81
2021/09/04 21:03:49;;;;;;;20.07;17.33;;;;;;;;;;2640944;30;20379;-82
2021/09/04 21:06:15;;;;;;;21.40;16.47;;;;;;;;;;2641414;38;20375;-81
2021/09/04 21:08:41;;;;;;;26.63;17.57;;;;;;;;;;2641184;38;21991;-81
2021/09/04 21:11:07;;;;;;;22.93;16.37;;;;;;;;;;2644591;30;20888;-81
2021/09/04 21:13:34;;;;;;;17.53;14.67;;;;;;;;;;2639421;30;20500;-81
2021/09/04 21:16:00;;;;;;;25.13;16.53;;;;;;;;;;2640807;30;20379;-81
2021/09/04 21:18:27;;;;;;;22.57;15.83;;;;;;;;;;2637202;38;22983;-81
2021/09/04 21:20:53;;;;;;;21.57;17.80;;;;;;;;;;2634153;38;20371;-81
2021/09/04 21:23:21;;;;;;;24.23;17.13;;;;;;;;;;2636659;38;20383;-81
2021/09/04 21:25:47;;;;;;;31.43;15.63;;;;;;;;;;2642066;30;20427;-81
2021/09/04 21:28:13;;;;;;;25.10;16.00;;;;;;;;;;2641470;30;20367;-81
2021/09/04 21:30:40;;;;;;;18.70;15.00;;;;;;;;;;2632902;38;20436;-81
2021/09/04 21:33:07;;;;;;;21.10;15.53;;;;;;;;;;2634272;30;20408;-81
2021/09/04 21:35:34;;;;;;;21.20;16.57;;;;;;;;;;2636833;30;20373;-81
2021/09/04 21:38:02;;;;;;;19.17;15.00;;;;;;;;;;2634476;30;20386;-81
2021/09/04 21:40:28;;;;;;;20.20;16.30;;;;;;;;;;2635514;38;20435;-81